createdAt,value
2022-12-07T00:01:46.865Z,19.34
2022-12-07T00:04:17.074Z,19.30
2022-12-07T00:06:47.308Z,19.22
2022-12-07T00:09:17.149Z,18.99
2022-12-07T00:11:45.601Z,19.32
2022-12-07T00:14:15.351Z,19.32
2022-12-07T00:16:43.971Z,18.95
2022-12-07T00:19:13.595Z,18.83
2022-12-07T00:21:42.148Z,18.70
2022-12-07T00:24:11.218Z,18.81
2022-12-07T00:26:40.845Z,19.31
2022-12-07T00:29:14.087Z,19.13
2022-12-07T00:31:41.944Z,19.27
2022-12-07T00:34:15.006Z,19.27
2022-12-07T00:36:42.778Z,19.00
2022-12-07T00:39:12.516Z,18.82
2022-12-07T00:41:41.350Z,19.29
2022-12-07T00:44:09.511Z,19.29
2022-12-07T00:46:37.162Z,19.27
2022-12-07T00:49:05.013Z,19.27
2022-12-07T00:51:32.831Z,19.28
2022-12-07T00:54:00.528Z,19.19
2022-12-07T00:56:29.765Z,19.11
2022-12-07T00:59:00.648Z,18.86
2022-12-07T01:01:31.486Z,19.08
2022-12-07T01:03:59.642Z,19.23
2022-12-07T01:06:27.383Z,19.22
2022-12-07T01:08:55.953Z,19.24
2022-12-07T01:11:25.974Z,19.25
2022-12-07T01:13:55.562Z,18.45
2022-12-07T01:16:27.393Z,19.18
2022-12-07T01:18:56.987Z,19.23
2022-12-07T01:21:30.418Z,18.81
2022-12-07T01:23:58.941Z,18.69
2022-12-07T01:26:27.400Z,19.02
2022-12-07T01:28:56.314Z,18.96
2022-12-07T01:31:27.126Z,19.06
2022-12-07T01:33:57.854Z,19.08
2022-12-07T01:36:32.597Z,18.66
2022-12-07T01:39:04.285Z,18.29
2022-12-07T01:41:35.026Z,18.77
2022-12-07T01:44:11.907Z,18.97
2022-12-07T01:46:40.448Z,18.05
2022-12-07T01:49:13.349Z,18.13
2022-12-07T01:51:43.321Z,18.92
2022-12-07T01:54:14.168Z,18.95
2022-12-07T01:56:47.259Z,18.53
2022-12-07T01:59:15.673Z,18.71
2022-12-07T02:01:43.468Z,18.65
2022-12-07T02:04:12.358Z,18.47
2022-12-07T02:06:41.531Z,18.56
2022-12-07T02:09:09.493Z,18.87
2022-12-07T02:11:37.500Z,18.61
2022-12-07T02:14:06.658Z,18.89
2022-12-07T02:17:15.017Z,18.64
2022-12-07T02:20:11.964Z,18.88
2022-12-07T02:23:13.802Z,18.90
2022-12-07T02:26:03.022Z,18.92
2022-12-07T02:28:52.367Z,18.88
2022-12-07T02:31:23.977Z,18.90
2022-12-07T02:33:58.756Z,18.84
2022-12-07T02:36:35.930Z,18.92
2022-12-07T02:39:09.513Z,18.93
2022-12-07T02:41:44.582Z,18.79
2022-12-07T02:44:17.102Z,18.82
2022-12-07T02:46:52.477Z,18.42
2022-12-07T02:49:22.907Z,18.93
2022-12-07T02:51:50.627Z,18.33
2022-12-07T02:54:20.941Z,18.88
2022-12-07T02:56:58.024Z,18.75
2022-12-07T03:00:01.108Z,18.86
2022-12-07T03:02:47.133Z,18.84
2022-12-07T03:05:55.732Z,18.85
2022-12-07T03:08:23.628Z,18.85
2022-12-07T03:10:51.408Z,18.86
2022-12-07T03:13:51.221Z,18.89
2022-12-07T03:16:27.367Z,18.78
2022-12-07T03:19:02.329Z,18.65
2022-12-07T03:21:38.559Z,18.75
2022-12-07T03:24:21.166Z,18.44
2022-12-07T03:26:58.098Z,18.49
2022-12-07T03:29:31.363Z,18.40
2022-12-07T03:32:51.577Z,18.82
2022-12-07T03:35:31.473Z,18.71
2022-12-07T03:38:09.694Z,18.56
2022-12-07T03:41:01.968Z,18.65
2022-12-07T03:43:31.455Z,18.83
2022-12-07T03:46:25.889Z,18.78
2022-12-07T03:49:07.771Z,18.20
2022-12-07T03:51:55.252Z,18.53
2022-12-07T03:54:39.076Z,18.65
2022-12-07T03:57:09.462Z,18.57
2022-12-07T03:59:38.948Z,18.24
2022-12-07T04:02:08.678Z,18.75
2022-12-07T04:04:37.064Z,18.59
2022-12-07T04:07:04.862Z,18.76
2022-12-07T04:09:33.315Z,18.30
2022-12-07T04:12:01.263Z,18.63
2022-12-07T04:14:29.118Z,18.76
2022-12-07T04:16:59.366Z,18.75
2022-12-07T04:19:30.026Z,18.70
2022-12-07T04:21:59.487Z,18.66
2022-12-07T04:24:28.793Z,18.67
2022-12-07T04:26:56.683Z,18.67
2022-12-07T04:29:26.078Z,18.28
2022-12-07T04:31:54.188Z,18.64
2022-12-07T04:34:24.410Z,18.56
2022-12-07T04:36:54.296Z,18.29
2022-12-07T04:39:27.526Z,18.67
2022-12-07T04:41:55.956Z,18.37
2022-12-07T04:44:25.702Z,18.72
2022-12-07T04:46:55.232Z,18.58
2022-12-07T04:49:23.179Z,18.76
2022-12-07T04:51:51.803Z,18.68
2022-12-07T04:54:20.721Z,18.79
2022-12-07T04:56:50.012Z,18.66
2022-12-07T04:59:18.775Z,18.20
2022-12-07T05:01:46.765Z,18.02
2022-12-07T05:04:14.601Z,18.39
2022-12-07T05:06:42.451Z,18.52
2022-12-07T05:09:10.384Z,18.64
2022-12-07T05:11:42.722Z,18.23
2022-12-07T05:14:18.227Z,18.62
2022-12-07T05:16:49.054Z,18.23
2022-12-07T05:19:17.365Z,18.59
2022-12-07T05:21:45.077Z,18.15
2022-12-07T05:24:16.326Z,18.58
2022-12-07T05:26:44.112Z,18.40
2022-12-07T05:29:16.636Z,18.30
2022-12-07T05:31:45.012Z,18.53
2022-12-07T05:34:13.575Z,18.56
2022-12-07T05:36:41.332Z,18.52
2022-12-07T05:39:09.876Z,18.60
2022-12-07T05:41:56.251Z,18.54
2022-12-07T05:44:24.083Z,18.60
2022-12-07T05:46:53.095Z,18.15
2022-12-07T05:49:20.771Z,18.53
2022-12-07T05:51:48.505Z,18.31
2022-12-07T05:54:16.603Z,18.48
2022-12-07T05:56:44.234Z,18.04
2022-12-07T05:59:24.252Z,18.28
2022-12-07T06:02:00.021Z,18.59
2022-12-07T06:04:31.740Z,18.18
2022-12-07T06:06:59.766Z,18.26
2022-12-07T06:09:29.452Z,18.37
2022-12-07T06:12:16.516Z,18.77
2022-12-07T06:14:44.523Z,18.79
2022-12-07T06:17:13.678Z,18.85
2022-12-07T06:19:41.577Z,18.81
2022-12-07T06:22:10.294Z,18.77
2022-12-07T06:24:38.397Z,18.70
2022-12-07T06:27:07.099Z,18.84
2022-12-07T06:29:36.115Z,18.70
2022-12-07T06:32:06.202Z,18.99
2022-12-07T06:34:34.053Z,19.02
2022-12-07T06:37:02.101Z,18.79
2022-12-07T06:39:32.082Z,18.77
2022-12-07T06:42:00.727Z,19.09
2022-12-07T06:44:28.905Z,19.10
2022-12-07T06:47:24.944Z,19.17
2022-12-07T06:49:47.743Z,19.20
2022-12-07T06:52:16.354Z,19.08
2022-12-07T06:54:44.053Z,19.23
2022-12-07T06:57:13.580Z,18.66
2022-12-07T06:59:41.336Z,19.23
2022-12-07T07:02:10.661Z,19.23
2022-12-07T07:04:38.386Z,18.93
2022-12-07T07:07:06.141Z,18.98
2022-12-07T07:09:33.975Z,19.20
2022-12-07T07:12:01.736Z,19.08
2022-12-07T07:14:29.456Z,19.11
2022-12-07T07:16:58.636Z,18.79
2022-12-07T07:19:26.346Z,19.16
2022-12-07T07:21:54.275Z,19.16
2022-12-07T07:24:22.221Z,18.85
2022-12-07T07:26:49.950Z,19.18
2022-12-07T07:29:17.728Z,19.16
2022-12-07T07:31:45.781Z,19.02
2022-12-07T07:34:13.757Z,19.19
2022-12-07T07:36:42.954Z,19.15
2022-12-07T07:39:13.997Z,19.10
2022-12-07T07:41:41.844Z,18.58
2022-12-07T07:44:14.690Z,18.95
2022-12-07T07:46:42.428Z,18.81
2022-12-07T07:49:11.949Z,18.72
2022-12-07T07:51:39.957Z,18.70
2022-12-07T07:54:07.790Z,19.07
2022-12-07T07:56:35.589Z,19.07
2022-12-07T07:59:03.965Z,18.91
2022-12-07T08:01:31.705Z,19.08
2022-12-07T08:03:59.540Z,18.94
2022-12-07T08:06:31.997Z,18.70
2022-12-07T08:09:00.422Z,19.16
2022-12-07T08:11:28.248Z,19.15
2022-12-07T08:13:56.506Z,18.94
2022-12-07T08:16:24.435Z,18.99
2022-12-07T08:18:52.245Z,19.20
2022-12-07T08:21:20.375Z,19.01
2022-12-07T08:23:48.502Z,19.20
2022-12-07T08:26:17.851Z,19.24
2022-12-07T08:28:46.317Z,19.27
2022-12-07T08:31:17.388Z,19.00
2022-12-07T08:33:49.469Z,19.27
2022-12-07T08:36:19.135Z,19.32
2022-12-07T08:39:22.415Z,19.31
2022-12-07T08:41:35.122Z,19.07
2022-12-07T08:44:02.918Z,18.97
2022-12-07T08:46:50.670Z,19.35
2022-12-07T08:49:21.387Z,19.47
2022-12-07T08:51:49.263Z,19.35
2022-12-07T08:54:18.631Z,19.50
2022-12-07T08:56:49.477Z,19.52
2022-12-07T08:59:22.041Z,19.14
2022-12-07T09:01:50.087Z,19.23
2022-12-07T09:04:17.962Z,19.15
2022-12-07T09:06:46.129Z,19.44
2022-12-07T09:09:16.091Z,19.61
2022-12-07T09:11:45.711Z,19.64
2022-12-07T09:14:14.021Z,19.19
2022-12-07T09:16:41.740Z,19.41
2022-12-07T09:19:09.772Z,19.69
2022-12-07T09:21:37.553Z,19.37
2022-12-07T09:24:06.953Z,19.10
2022-12-07T09:26:36.242Z,19.49
2022-12-07T09:29:04.619Z,19.40
2022-12-07T09:31:32.769Z,19.69
2022-12-07T09:34:02.130Z,19.23
2022-12-07T09:36:30.425Z,19.62
2022-12-07T09:38:58.063Z,19.40
2022-12-07T09:41:27.799Z,19.48
2022-12-07T09:44:04.667Z,19.62
2022-12-07T09:46:38.144Z,19.64
2022-12-07T09:49:06.852Z,19.55
2022-12-07T09:51:34.587Z,19.44
2022-12-07T09:54:03.197Z,19.72
2022-12-07T09:56:32.181Z,19.39
2022-12-07T09:59:02.648Z,19.72
2022-12-07T10:01:32.948Z,19.82
2022-12-07T10:04:14.772Z,19.84
2022-12-07T10:06:43.257Z,19.70
2022-12-07T10:09:16.491Z,19.79
2022-12-07T10:12:10.096Z,19.73
2022-12-07T10:17:37.450Z,19.79
2022-12-07T10:20:19.642Z,19.96
2022-12-07T10:23:14.567Z,19.97
2022-12-07T10:25:43.802Z,19.81
2022-12-07T10:28:13.441Z,19.97
2022-12-07T10:31:03.278Z,19.86
2022-12-07T10:33:54.205Z,19.89
2022-12-07T10:36:23.809Z,19.97
2022-12-07T10:39:13.809Z,19.87
2022-12-07T10:42:02.880Z,20.00
2022-12-07T10:44:32.371Z,19.80
2022-12-07T10:47:18.905Z,19.99
2022-12-07T10:50:05.330Z,19.97
2022-12-07T10:53:10.474Z,19.96
2022-12-07T10:56:00.006Z,19.94
2022-12-07T10:58:51.408Z,19.87
2022-12-07T11:02:22.040Z,19.21
2022-12-07T11:05:05.568Z,19.87
2022-12-07T11:07:53.534Z,19.88
2022-12-07T11:11:09.473Z,19.89
2022-12-07T11:13:43.856Z,19.90
2022-12-07T11:16:18.163Z,19.92
2022-12-07T11:19:15.487Z,19.94
2022-12-07T11:21:59.945Z,19.98
2022-12-07T11:24:50.732Z,19.98
2022-12-07T11:27:33.304Z,20.01
2022-12-07T11:30:14.903Z,19.79
2022-12-07T11:33:03.386Z,20.04
2022-12-07T11:36:29.994Z,19.73
2022-12-07T11:39:04.348Z,20.01
2022-12-07T11:41:38.876Z,20.11
2022-12-07T11:44:09.695Z,20.11
2022-12-07T11:47:09.484Z,20.04
2022-12-07T11:49:57.797Z,19.82
2022-12-07T11:53:10.568Z,20.08
2022-12-07T11:56:06.499Z,20.14
2022-12-07T11:58:51.005Z,20.14
2022-12-07T12:01:40.623Z,20.15
2022-12-07T12:04:11.279Z,20.15
2022-12-07T12:06:47.544Z,20.08
2022-12-07T12:15:41.659Z,19.96
2022-12-07T12:18:26.905Z,20.14
2022-12-07T12:21:05.440Z,19.96
2022-12-07T12:23:40.845Z,20.14
2022-12-07T12:26:16.397Z,19.84
2022-12-07T12:28:50.350Z,20.16
2022-12-07T12:31:33.825Z,19.99
2022-12-07T12:34:04.766Z,19.80
2022-12-07T12:36:34.175Z,20.18
2022-12-07T12:39:08.160Z,20.20
2022-12-07T12:41:39.334Z,20.22
2022-12-07T12:44:16.238Z,20.20
2022-12-07T12:46:55.239Z,19.89
2022-12-07T12:49:22.912Z,20.19
2022-12-07T12:51:58.419Z,20.21
2022-12-07T12:54:28.928Z,20.18
2022-12-07T12:57:17.420Z,19.94
2022-12-07T12:59:48.140Z,20.19
2022-12-07T13:02:25.288Z,20.19
2022-12-07T13:04:55.069Z,20.17
2022-12-07T13:07:54.009Z,20.16
2022-12-07T13:10:24.722Z,20.15
2022-12-07T13:13:01.399Z,20.16
2022-12-07T13:15:44.051Z,20.11
2022-12-07T13:18:33.943Z,20.14
2022-12-07T13:21:03.341Z,20.07
2022-12-07T13:23:35.545Z,19.93
2022-12-07T13:26:17.730Z,20.14
2022-12-07T13:28:50.143Z,20.15
2022-12-07T13:31:27.945Z,20.19
2022-12-07T13:33:55.652Z,20.02
2022-12-07T13:36:27.936Z,20.17
2022-12-07T13:39:01.545Z,20.20
2022-12-07T13:41:31.260Z,20.21
2022-12-07T13:44:12.815Z,20.22
2022-12-07T13:47:17.944Z,20.22
2022-12-07T13:49:54.588Z,20.20
2022-12-07T13:52:22.401Z,20.09
2022-12-07T13:54:58.784Z,20.27
2022-12-07T13:57:28.822Z,20.33
2022-12-07T13:59:58.533Z,20.27
2022-12-07T14:02:35.037Z,20.33
2022-12-07T14:05:28.407Z,20.36
2022-12-07T14:07:57.934Z,20.36
2022-12-07T14:10:34.457Z,20.35
2022-12-07T14:13:04.715Z,20.34
2022-12-07T14:15:35.627Z,20.18
2022-12-07T14:18:07.074Z,20.25
2022-12-07T14:20:40.880Z,19.93
2022-12-07T14:23:25.418Z,20.31
2022-12-07T14:25:55.050Z,20.31
2022-12-07T14:28:34.769Z,20.19
2022-12-07T14:31:03.888Z,20.27
2022-12-07T14:33:32.616Z,20.08
2022-12-07T14:36:01.013Z,20.39
2022-12-07T14:38:29.118Z,20.31
2022-12-07T14:41:21.301Z,20.29
2022-12-07T14:44:21.336Z,20.39
2022-12-07T14:46:37.441Z,20.45
2022-12-07T14:54:42.507Z,20.40
2022-12-07T14:57:12.356Z,20.41
2022-12-07T14:59:44.857Z,20.18
2022-12-07T15:02:15.358Z,20.29
2022-12-07T15:04:43.171Z,19.99
2022-12-07T15:07:19.718Z,20.26
2022-12-07T15:09:48.932Z,20.18
2022-12-07T15:12:16.791Z,20.18
2022-12-07T15:14:44.526Z,20.11
2022-12-07T15:17:25.925Z,19.91
2022-12-07T15:19:55.732Z,20.24
2022-12-07T15:22:23.709Z,20.10
2022-12-07T15:24:51.301Z,20.22
2022-12-07T15:27:19.216Z,20.28
2022-12-07T15:29:47.077Z,20.25
2022-12-07T15:32:14.945Z,20.19
2022-12-07T15:34:42.751Z,19.82
2022-12-07T15:37:10.833Z,20.17
2022-12-07T15:39:38.593Z,20.00
2022-12-07T15:42:06.354Z,20.09
2022-12-07T15:44:54.480Z,20.04
2022-12-07T15:47:22.274Z,20.04
2022-12-07T15:49:53.208Z,19.93
2022-12-07T15:52:20.915Z,20.21
2022-12-07T15:54:49.060Z,20.18
2022-12-07T15:57:22.047Z,19.91
2022-12-07T15:59:52.689Z,19.82
2022-12-07T16:02:20.559Z,19.89
2022-12-07T16:04:48.441Z,20.09
2022-12-07T16:07:17.009Z,20.06
2022-12-07T16:09:45.436Z,19.91
2022-12-07T16:12:15.663Z,19.94
2022-12-07T16:14:43.828Z,20.12
2022-12-07T16:17:11.858Z,20.01
2022-12-07T16:19:41.938Z,20.07
2022-12-07T16:22:09.833Z,19.63
2022-12-07T16:24:37.541Z,19.66
2022-12-07T16:27:05.323Z,19.78
2022-12-07T16:29:32.969Z,19.62
2022-12-07T16:32:00.654Z,20.06
2022-12-07T16:34:29.903Z,19.93
2022-12-07T16:37:05.756Z,20.05
2022-12-07T16:39:34.954Z,19.75
2022-12-07T16:42:02.702Z,19.69
2022-12-07T16:44:31.771Z,19.92
2022-12-07T16:46:59.815Z,19.76
2022-12-07T16:49:27.687Z,20.02
2022-12-07T16:52:18.114Z,19.42
2022-12-07T16:54:44.272Z,19.98
2022-12-07T16:57:15.527Z,19.97
2022-12-07T16:59:47.749Z,19.98
2022-12-07T17:02:15.581Z,19.92
2022-12-07T17:04:43.554Z,19.86
2022-12-07T17:07:12.712Z,19.68
2022-12-07T17:09:40.550Z,19.89
2022-12-07T17:12:08.418Z,19.82
2022-12-07T17:14:54.966Z,19.92
2022-12-07T17:17:22.564Z,20.07
2022-12-07T17:19:50.381Z,19.65
2022-12-07T17:22:18.019Z,19.99
2022-12-07T17:24:45.763Z,19.80
2022-12-07T17:27:13.492Z,19.81
2022-12-07T17:29:42.196Z,20.02
2022-12-07T17:32:10.479Z,19.93
2022-12-07T17:34:38.200Z,19.97
2022-12-07T17:37:05.815Z,19.94
2022-12-07T17:39:33.678Z,19.89
2022-12-07T17:42:19.898Z,19.94
2022-12-07T17:44:47.614Z,19.94
2022-12-07T17:47:17.153Z,20.02
2022-12-07T17:49:46.863Z,19.71
2022-12-07T17:52:34.137Z,19.63
2022-12-07T17:55:02.056Z,19.95
2022-12-07T17:57:30.391Z,19.63
2022-12-07T17:59:59.151Z,19.78
2022-12-07T18:02:26.897Z,19.94
2022-12-07T18:04:54.485Z,19.90
2022-12-07T18:07:22.182Z,19.86
2022-12-07T18:09:49.783Z,19.74
2022-12-07T18:12:17.479Z,19.78
2022-12-07T18:14:45.131Z,19.92
2022-12-07T18:17:12.856Z,19.88
2022-12-07T18:19:40.523Z,19.40
2022-12-07T18:22:08.395Z,19.74
2022-12-07T18:24:38.507Z,19.44
2022-12-07T18:27:06.937Z,19.91
2022-12-07T18:29:36.284Z,19.91
2022-12-07T18:32:05.198Z,19.55
2022-12-07T18:34:33.213Z,19.77
2022-12-07T18:37:01.033Z,19.84
2022-12-07T18:39:33.605Z,19.59
2022-12-07T18:42:01.778Z,19.93
2022-12-07T18:44:29.516Z,19.93
2022-12-07T18:46:57.434Z,19.92
2022-12-07T18:49:25.341Z,19.75
2022-12-07T18:51:53.256Z,19.80
2022-12-07T18:54:21.730Z,19.76
2022-12-07T18:56:49.451Z,19.62
2022-12-07T18:59:35.703Z,19.86
2022-12-07T19:02:03.669Z,19.80
2022-12-07T19:04:31.402Z,19.50
2022-12-07T19:06:59.224Z,19.80
2022-12-07T19:09:27.417Z,19.63
2022-12-07T19:11:56.516Z,19.52
2022-12-07T19:14:33.381Z,19.89
2022-12-07T19:17:03.922Z,19.90
2022-12-07T19:19:43.707Z,19.62
2022-12-07T19:22:16.832Z,19.82
2022-12-07T19:24:48.784Z,19.88
2022-12-07T19:27:17.783Z,19.80
2022-12-07T19:29:47.621Z,19.62
2022-12-07T19:32:16.643Z,19.86
2022-12-07T19:34:46.549Z,19.58
2022-12-07T19:37:14.697Z,19.48
2022-12-07T19:39:47.644Z,19.78
2022-12-07T19:42:15.493Z,20.03
2022-12-07T19:44:43.182Z,20.07
2022-12-07T19:47:11.065Z,20.12
2022-12-07T19:49:38.811Z,20.17
2022-12-07T19:52:09.229Z,20.20
2022-12-07T19:54:37.843Z,20.14
2022-12-07T19:57:07.543Z,20.09
2022-12-07T19:59:35.692Z,20.07
2022-12-07T20:02:03.836Z,20.13
2022-12-07T20:04:36.029Z,20.13
2022-12-07T20:07:04.910Z,20.16
2022-12-07T20:09:33.022Z,20.15
2022-12-07T20:12:20.191Z,20.01
2022-12-07T20:14:47.886Z,19.57
2022-12-07T20:17:15.785Z,19.84
2022-12-07T20:19:43.900Z,20.21
2022-12-07T20:22:14.031Z,19.93
2022-12-07T20:24:41.980Z,20.28
2022-12-07T20:27:10.804Z,20.39
2022-12-07T20:29:39.460Z,20.40
2022-12-07T20:32:07.284Z,20.32
2022-12-07T20:34:35.622Z,20.09
2022-12-07T20:37:03.431Z,20.31
2022-12-07T20:39:33.896Z,20.39
2022-12-07T20:42:22.379Z,20.38
2022-12-07T20:44:50.936Z,20.12
2022-12-07T20:47:26.360Z,20.30
2022-12-07T20:50:00.107Z,19.89
2022-12-07T20:52:30.288Z,20.09
2022-12-07T20:54:58.012Z,20.19
2022-12-07T20:57:25.707Z,20.18
2022-12-07T20:59:53.617Z,20.24
2022-12-07T21:02:21.353Z,19.93
2022-12-07T21:04:49.080Z,19.93
2022-12-07T21:07:17.819Z,20.22
2022-12-07T21:09:48.745Z,20.18
2022-12-07T21:12:17.124Z,19.78
2022-12-07T21:14:45.318Z,20.05
2022-12-07T21:17:12.948Z,19.92
2022-12-07T21:19:40.916Z,20.07
2022-12-07T21:22:08.678Z,19.64
2022-12-07T21:24:39.696Z,20.12
2022-12-07T21:27:08.143Z,20.12
2022-12-07T21:29:43.678Z,20.14
2022-12-07T21:32:13.820Z,19.98
2022-12-07T21:34:41.755Z,20.09
2022-12-07T21:37:09.611Z,20.16
2022-12-07T21:39:37.294Z,20.02
2022-12-07T21:42:05.235Z,20.14
2022-12-07T21:44:34.033Z,19.63
2022-12-07T21:47:01.775Z,20.02
2022-12-07T21:49:29.515Z,20.17
2022-12-07T21:51:57.379Z,19.64
2022-12-07T21:54:26.423Z,20.03
2022-12-07T21:56:55.547Z,19.71
2022-12-07T21:59:23.251Z,20.21
2022-12-07T22:01:52.737Z,20.16
2022-12-07T22:04:23.594Z,20.12
2022-12-07T22:06:53.759Z,20.13
2022-12-07T22:09:24.184Z,20.00
2022-12-07T22:11:51.803Z,20.02
2022-12-07T22:14:37.849Z,20.07
2022-12-07T22:17:08.126Z,19.78
2022-12-07T22:19:37.304Z,19.98
2022-12-07T22:22:04.987Z,20.05
2022-12-07T22:24:32.589Z,19.95
2022-12-07T22:27:01.736Z,19.86
2022-12-07T22:29:29.482Z,19.99
2022-12-07T22:31:57.222Z,19.89
2022-12-07T22:34:25.243Z,19.96
2022-12-07T22:36:52.912Z,19.97
2022-12-07T22:39:20.645Z,19.80
2022-12-07T22:41:49.211Z,19.51
2022-12-07T22:44:16.959Z,19.86
2022-12-07T22:46:45.834Z,19.87
2022-12-07T22:49:13.721Z,19.73
2022-12-07T22:51:44.609Z,19.92
2022-12-07T22:54:19.385Z,19.71
2022-12-07T22:56:47.103Z,19.91
2022-12-07T22:59:14.856Z,19.86
2022-12-07T23:01:42.669Z,19.78
2022-12-07T23:04:11.096Z,19.70
2022-12-07T23:06:38.886Z,19.69
2022-12-07T23:09:10.875Z,19.76
2022-12-07T23:12:01.324Z,19.83
2022-12-07T23:14:32.359Z,19.64
2022-12-07T23:17:00.662Z,19.75
2022-12-07T23:19:29.445Z,19.83
2022-12-07T23:21:57.237Z,19.76
2022-12-07T23:24:25.433Z,19.75
2022-12-07T23:26:54.696Z,19.56
2022-12-07T23:29:22.482Z,19.83
2022-12-07T23:31:50.651Z,19.77
2022-12-07T23:34:18.458Z,19.80
2022-12-07T23:36:46.318Z,19.78
2022-12-07T23:39:14.205Z,19.76
2022-12-07T23:41:42.080Z,19.73
2022-12-07T23:44:11.844Z,19.67
2022-12-07T23:46:40.589Z,19.56
2022-12-07T23:49:09.102Z,19.74
2022-12-07T23:51:36.780Z,19.64
2022-12-07T23:54:05.107Z,19.48
2022-12-07T23:56:34.602Z,19.38
2022-12-07T23:59:04.795Z,19.66
